Time;durP1;ratioP1;P1;durP2;ratioP2;P2;SDS_P1;SDS_P2;PMS_P1;PMS_P2;Temp;Humidity;BMP_temperature;BMP_pressure;BME280_temperature;BME280_humidity;BME280_pressure;Samples;Min_cycle;Max_cycle;Signal;HPM_P1;HPM_P2
2023/12/25 00:00:09;;;;;;;;;;;11.40;99.90;;;;;;5075025;28;19909;-79
2023/12/25 00:02:34;;;;;;;;;;;11.40;99.90;;;;;;5074835;28;20446;-75
2023/12/25 00:05:00;;;;;;;;;;;11.40;99.90;;;;;;5067331;28;19971;-79
2023/12/25 00:07:25;;;;;;;;;;;11.40;99.90;;;;;;5055499;28;20386;-80
2023/12/25 00:09:51;;;;;;;;;;;11.40;99.90;;;;;;5053898;28;19912;-75
2023/12/25 00:12:17;;;;;;;;;;;11.40;99.90;;;;;;5053802;28;20002;-79
2023/12/25 00:14:43;;;;;;;;;;;11.40;99.90;;;;;;5054143;28;19915;-75
2023/12/25 00:17:08;;;;;;;;;;;11.40;99.90;;;;;;5054047;28;19908;-75
2023/12/25 00:19:34;;;;;;;;;;;11.50;99.90;;;;;;5053837;28;19913;-79
2023/12/25 00:21:59;;;;;;;;;;;11.50;99.90;;;;;;5053984;28;19951;-75
2023/12/25 00:24:25;;;;;;;;;;;11.50;99.90;;;;;;5046547;28;20001;-75
2023/12/25 00:26:50;;;;;;;;;;;11.50;99.90;;;;;;5048665;28;19909;-79
2023/12/25 00:29:16;;;;;;;;;;;11.60;99.90;;;;;;5053848;28;19908;-75
2023/12/25 00:31:41;;;;;;;;;;;11.50;99.90;;;;;;5053508;28;19947;-75
2023/12/25 00:34:08;;;;;;;;;;;11.50;99.90;;;;;;5053450;28;20355;-75
2023/12/25 00:36:33;;;;;;;;;;;11.50;99.90;;;;;;5065299;28;20371;-76
2023/12/25 00:38:59;;;;;;;;;;;11.50;99.90;;;;;;5073360;28;19952;-75
2023/12/25 00:41:30;;;;;;;;;;;11.60;99.90;;;;;;5073186;28;19919;-75
2023/12/25 00:43:56;;;;;;;;;;;11.60;99.90;;;;;;5074795;28;19908;-75
2023/12/25 00:46:22;;;;;;;;;;;11.60;99.90;;;;;;5074372;28;19913;-75
2023/12/25 00:48:47;;;;;;;;;;;11.60;99.90;;;;;;5073126;28;19916;-75
2023/12/25 00:51:13;;;;;;;;;;;11.70;99.90;;;;;;5073224;28;20371;-77
2023/12/25 00:53:38;;;;;;;;;;;11.70;99.90;;;;;;5072900;28;19908;-75
2023/12/25 00:56:05;;;;;;;;;;;11.70;99.90;;;;;;5073235;28;19913;-75
2023/12/25 00:58:30;;;;;;;;;;;11.70;99.90;;;;;;5073119;28;19913;-76
2023/12/25 01:00:56;;;;;;;;;;;11.70;99.90;;;;;;5073287;28;20003;-75
2023/12/25 01:03:22;;;;;;;;;;;11.70;99.90;;;;;;5073085;28;19916;-78
2023/12/25 01:05:47;;;;;;;;;;;11.70;99.90;;;;;;5072321;28;20302;-75
2023/12/25 01:08:13;;;;;;;;;;;11.70;99.90;;;;;;5074180;28;19909;-75
2023/12/25 01:10:38;;;;;;;;;;;11.70;99.90;;;;;;5054126;28;19913;-78
2023/12/25 01:13:04;;;;;;;;;;;11.70;99.90;;;;;;5053385;28;19920;-79
2023/12/25 01:15:29;;;;;;;;;;;11.70;99.90;;;;;;5053095;28;19971;-75
2023/12/25 01:17:55;;;;;;;;;;;11.70;99.90;;;;;;5052770;28;19959;-75
2023/12/25 01:20:20;;;;;;;;;;;11.60;99.90;;;;;;5053207;28;20367;-75
2023/12/25 01:22:46;;;;;;;;;;;11.60;99.90;;;;;;5052102;28;19959;-75
2023/12/25 01:25:12;;;;;;;;;;;11.60;99.90;;;;;;5043845;28;19962;-75
2023/12/25 01:27:41;;;;;;;;;;;11.60;99.90;;;;;;5052839;28;20321;-80
2023/12/25 01:30:07;;;;;;;;;;;11.50;99.90;;;;;;5053769;28;20425;-75
2023/12/25 01:32:33;;;;;;;;;;;11.50;99.90;;;;;;5052527;28;20383;-76
2023/12/25 01:34:58;;;;;;;;;;;11.60;99.90;;;;;;5052543;28;19916;-80
2023/12/25 01:37:24;;;;;;;;;;;11.60;99.90;;;;;;5052527;28;19913;-75
2023/12/25 01:39:49;;;;;;;;;;;11.60;99.90;;;;;;5053526;28;20395;-76
2023/12/25 01:42:15;;;;;;;;;;;11.60;99.90;;;;;;5053618;28;19912;-75
2023/12/25 01:44:41;;;;;;;;;;;11.60;99.90;;;;;;5051830;28;19913;-75
2023/12/25 01:47:06;;;;;;;;;;;11.60;99.90;;;;;;5052611;28;20387;-75
2023/12/25 01:49:32;;;;;;;;;;;11.60;99.90;;;;;;5052389;28;19913;-75
2023/12/25 01:51:58;;;;;;;;;;;11.60;99.90;;;;;;5052528;28;19920;-80
2023/12/25 01:54:23;;;;;;;;;;;11.60;99.90;;;;;;5053869;28;20334;-75
2023/12/25 01:56:49;;;;;;;;;;;11.70;99.90;;;;;;5052398;28;19916;-80
2023/12/25 01:59:15;;;;;;;;;;;11.70;99.90;;;;;;5068747;28;19919;-75
2023/12/25 02:01:40;;;;;;;;;;;11.70;99.90;;;;;;5072510;28;19912;-76
2023/12/25 02:04:06;;;;;;;;;;;11.80;99.90;;;;;;5072702;28;19908;-79
2023/12/25 02:06:33;;;;;;;;;;;11.70;99.90;;;;;;5076347;28;19954;-79
2023/12/25 02:08:59;;;;;;;;;;;11.80;99.90;;;;;;5076574;28;19909;-75
2023/12/25 02:11:24;;;;;;;;;;;11.80;99.90;;;;;;5077578;28;19939;-79
2023/12/25 02:13:51;;;;;;;;;;;11.80;99.90;;;;;;5077755;28;20289;-75
2023/12/25 02:16:16;;;;;;;;;;;11.80;99.90;;;;;;5076267;28;19909;-75
2023/12/25 02:18:42;;;;;;;;;;;11.80;99.90;;;;;;5076215;28;19978;-76
2023/12/25 02:21:08;;;;;;;;;;;11.80;99.90;;;;;;5076269;28;19915;-79
2023/12/25 02:23:34;;;;;;;;;;;11.90;99.90;;;;;;5068067;28;19912;-75
2023/12/25 02:26:01;;;;;;;;;;;11.90;99.90;;;;;;5036610;28;19916;-79
2023/12/25 02:28:27;;;;;;;;;;;11.90;99.90;;;;;;5035949;28;19947;-75
2023/12/25 02:30:52;;;;;;;;;;;11.90;99.90;;;;;;5035827;28;19921;-75
2023/12/25 02:33:18;;;;;;;;;;;11.90;99.90;;;;;;5036063;28;19955;-75
2023/12/25 02:35:43;;;;;;;;;;;11.90;99.90;;;;;;5036004;28;19916;-78
2023/12/25 02:38:09;;;;;;;;;;;11.90;99.90;;;;;;5036701;28;19913;-75
2023/12/25 02:40:35;;;;;;;;;;;11.90;99.90;;;;;;5037320;28;19913;-75
2023/12/25 02:43:01;;;;;;;;;;;11.90;99.90;;;;;;5037440;28;19916;-75
2023/12/25 02:45:26;;;;;;;;;;;11.90;99.90;;;;;;5035937;28;19909;-79
2023/12/25 02:47:52;;;;;;;;;;;11.90;99.90;;;;;;5035709;28;20007;-79
2023/12/25 02:50:17;;;;;;;;;;;11.90;99.90;;;;;;5035074;28;19917;-75
2023/12/25 02:52:43;;;;;;;;;;;11.90;99.90;;;;;;5035632;28;20319;-77
2023/12/25 02:55:09;;;;;;;;;;;11.90;99.90;;;;;;5036965;28;20298;-80
2023/12/25 02:57:34;;;;;;;;;;;11.80;99.90;;;;;;5052957;28;19913;-75
2023/12/25 03:00:00;;;;;;;;;;;11.80;99.90;;;;;;5056879;28;20474;-75
2023/12/25 03:02:27;;;;;;;;;;;11.80;99.90;;;;;;5055483;28;19954;-79
2023/12/25 03:04:53;;;;;;;;;;;11.80;99.90;;;;;;5061244;28;19920;-75
2023/12/25 03:07:18;;;;;;;;;;;11.80;99.90;;;;;;5074526;28;20279;-75
2023/12/25 03:09:44;;;;;;;;;;;11.80;99.90;;;;;;5060619;28;19916;-75
2023/12/25 03:12:09;;;;;;;;;;;11.80;99.90;;;;;;5035453;28;20296;-75
2023/12/25 03:14:35;;;;;;;;;;;11.70;99.90;;;;;;5035348;28;19952;-79
2023/12/25 03:17:00;;;;;;;;;;;11.60;99.90;;;;;;5035008;28;20287;-75
2023/12/25 03:19:26;;;;;;;;;;;11.60;99.90;;;;;;5035129;28;19909;-75
2023/12/25 03:21:51;;;;;;;;;;;11.60;99.90;;;;;;5035240;28;19916;-79
2023/12/25 03:24:17;;;;;;;;;;;11.60;99.90;;;;;;5039801;28;19909;-75
2023/12/25 03:26:43;;;;;;;;;;;11.50;99.90;;;;;;5035123;28;19916;-75
2023/12/25 03:29:08;;;;;;;;;;;11.60;99.90;;;;;;5036538;28;20007;-75
2023/12/25 03:31:34;;;;;;;;;;;11.60;99.90;;;;;;5053545;28;20008;-79
2023/12/25 03:33:59;;;;;;;;;;;11.60;99.90;;;;;;5055070;28;20318;-80
2023/12/25 03:36:25;;;;;;;;;;;11.60;99.90;;;;;;5055047;28;19916;-75
2023/12/25 03:38:51;;;;;;;;;;;11.60;99.90;;;;;;5054606;28;20027;-75
2023/12/25 03:41:16;;;;;;;;;;;11.60;99.90;;;;;;5054672;28;20372;-75
2023/12/25 03:43:42;;;;;;;;;;;11.60;99.90;;;;;;5054721;28;19916;-75
2023/12/25 03:46:07;;;;;;;;;;;11.60;99.90;;;;;;5054598;28;20292;-75
2023/12/25 03:48:33;;;;;;;;;;;11.60;99.90;;;;;;5054326;28;19908;-77
2023/12/25 03:50:59;;;;;;;;;;;11.60;99.90;;;;;;5055756;28;19921;-75
2023/12/25 03:53:24;;;;;;;;;;;11.70;99.90;;;;;;5054537;28;20275;-80
2023/12/25 03:55:50;;;;;;;;;;;11.70;99.90;;;;;;5055623;28;20376;-75
2023/12/25 03:58:15;;;;;;;;;;;11.70;99.90;;;;;;5054381;28;19909;-79
2023/12/25 04:00:44;;;;;;;;;;;11.70;99.90;;;;;;5054344;28;19916;-75
2023/12/25 04:03:10;;;;;;;;;;;11.70;99.90;;;;;;5054310;28;19913;-80
2023/12/25 04:05:36;;;;;;;;;;;11.70;99.90;;;;;;5053805;28;19909;-75
2023/12/25 04:08:02;;;;;;;;;;;11.70;99.90;;;;;;5054159;28;19916;-76
2023/12/25 04:10:27;;;;;;;;;;;11.60;99.90;;;;;;5053937;28;20378;-80
2023/12/25 04:12:53;;;;;;;;;;;11.60;99.90;;;;;;5054143;28;20391;-75
2023/12/25 04:15:19;;;;;;;;;;;11.60;99.90;;;;;;5054176;28;20394;-79
2023/12/25 04:17:44;;;;;;;;;;;11.60;99.90;;;;;;5054205;28;19920;-75
2023/12/25 04:20:10;;;;;;;;;;;11.60;99.90;;;;;;5053794;28;19909;-79
2023/12/25 04:22:36;;;;;;;;;;;11.60;99.90;;;;;;5053963;28;19909;-78
2023/12/25 04:25:01;;;;;;;;;;;11.50;99.90;;;;;;5036531;28;19996;-79
2023/12/25 04:27:27;;;;;;;;;;;11.50;99.90;;;;;;5033190;28;19917;-79
2023/12/25 04:29:52;;;;;;;;;;;11.50;99.90;;;;;;5050577;28;20502;-75
2023/12/25 04:32:18;;;;;;;;;;;11.60;99.90;;;;;;5063270;28;19924;-79
2023/12/25 04:34:43;;;;;;;;;;;11.50;99.90;;;;;;5056953;28;19923;-75
2023/12/25 04:37:09;;;;;;;;;;;11.50;99.90;;;;;;5056157;28;19959;-79
2023/12/25 04:39:34;;;;;;;;;;;11.50;99.90;;;;;;5036696;28;19913;-79
2023/12/25 04:42:01;;;;;;;;;;;11.60;99.90;;;;;;5036800;28;20295;-76
2023/12/25 04:44:26;;;;;;;;;;;11.60;99.90;;;;;;5052142;28;19979;-75
2023/12/25 04:46:52;;;;;;;;;;;11.60;99.90;;;;;;5075296;28;19912;-79
2023/12/25 04:49:17;;;;;;;;;;;11.60;99.90;;;;;;5057219;28;19912;-79
2023/12/25 04:51:43;;;;;;;;;;;11.60;99.90;;;;;;5063393;28;20018;-75
2023/12/25 04:54:08;;;;;;;;;;;11.60;99.90;;;;;;5094778;28;19908;-79
2023/12/25 04:56:34;;;;;;;;;;;11.60;99.90;;;;;;5076593;28;19994;-79
2023/12/25 04:58:59;;;;;;;;;;;11.60;99.90;;;;;;5076574;28;19908;-75
2023/12/25 05:01:25;;;;;;;;;;;11.60;99.90;;;;;;5076681;28;19908;-76
2023/12/25 05:03:50;;;;;;;;;;;11.60;99.90;;;;;;5075840;28;19915;-75
2023/12/25 05:06:16;;;;;;;;;;;11.50;99.90;;;;;;5076628;28;19914;-75
2023/12/25 05:08:41;;;;;;;;;;;11.50;99.90;;;;;;5076128;28;20002;-75
2023/12/25 05:11:07;;;;;;;;;;;11.60;99.90;;;;;;5076297;28;19912;-75
2023/12/25 05:13:32;;;;;;;;;;;11.50;99.90;;;;;;5076393;28;19999;-78
2023/12/25 05:15:58;;;;;;;;;;;11.50;99.90;;;;;;5076460;28;20259;-79
2023/12/25 05:18:24;;;;;;;;;;;11.50;99.90;;;;;;5076152;28;20321;-79
2023/12/25 05:20:49;;;;;;;;;;;11.50;99.90;;;;;;5075956;28;19909;-79
2023/12/25 05:23:15;;;;;;;;;;;11.50;99.90;;;;;;5069440;28;20011;-75
2023/12/25 05:25:40;;;;;;;;;;;11.50;99.90;;;;;;5038534;28;19908;-75
2023/12/25 05:28:06;;;;;;;;;;;11.40;99.90;;;;;;5035950;28;19971;-79
2023/12/25 05:30:31;;;;;;;;;;;11.40;99.90;;;;;;5053281;28;19913;-76
2023/12/25 05:32:57;;;;;;;;;;;11.40;99.90;;;;;;5053577;28;19955;-75
2023/12/25 05:35:23;;;;;;;;;;;11.40;99.90;;;;;;5052063;28;19944;-76
2023/12/25 05:37:49;;;;;;;;;;;11.40;99.90;;;;;;5035873;28;19909;-75
2023/12/25 05:40:15;;;;;;;;;;;11.50;99.90;;;;;;5035736;28;19920;-75
2023/12/25 05:42:40;;;;;;;;;;;11.40;99.90;;;;;;5035766;28;19937;-80
2023/12/25 05:45:07;;;;;;;;;;;11.30;99.90;;;;;;5045669;28;20005;-79
2023/12/25 05:47:33;;;;;;;;;;;11.30;99.90;;;;;;5056032;28;20298;-79
2023/12/25 05:49:58;;;;;;;;;;;11.30;99.90;;;;;;5055615;28;19917;-79
2023/12/25 05:52:24;;;;;;;;;;;11.30;99.90;;;;;;5055808;28;19912;-79
2023/12/25 05:54:49;;;;;;;;;;;11.30;99.90;;;;;;5055619;28;19915;-75
2023/12/25 05:57:15;;;;;;;;;;;11.20;99.90;;;;;;5074115;28;19913;-80
2023/12/25 05:59:40;;;;;;;;;;;11.20;99.90;;;;;;5056356;28;19915;-75
2023/12/25 06:02:06;;;;;;;;;;;11.20;99.90;;;;;;5055246;28;19912;-79
2023/12/25 06:04:31;;;;;;;;;;;11.20;99.90;;;;;;5055683;28;19909;-75
2023/12/25 06:06:57;;;;;;;;;;;11.10;99.90;;;;;;5055516;28;19908;-79
2023/12/25 06:09:25;;;;;;;;;;;11.20;99.90;;;;;;5055580;28;19909;-80
2023/12/25 06:11:50;;;;;;;;;;;11.20;99.90;;;;;;5073430;28;19916;-80
2023/12/25 06:14:16;;;;;;;;;;;11.10;99.90;;;;;;5055565;28;20007;-79
2023/12/25 06:16:44;;;;;;;;;;;11.20;99.90;;;;;;5055695;28;20371;-79
2023/12/25 06:19:10;;;;;;;;;;;11.10;99.90;;;;;;5055439;28;19919;-75
2023/12/25 06:21:35;;;;;;;;;;;11.00;99.90;;;;;;5055396;28;19913;-79
2023/12/25 06:24:01;;;;;;;;;;;10.90;99.90;;;;;;5054061;28;19909;-80
2023/12/25 06:26:26;;;;;;;;;;;10.80;99.90;;;;;;5046630;28;19912;-75
2023/12/25 06:28:52;;;;;;;;;;;10.70;99.90;;;;;;5055483;28;19912;-79
2023/12/25 06:31:17;;;;;;;;;;;10.50;99.90;;;;;;5073174;28;19921;-79
2023/12/25 06:33:43;;;;;;;;;;;10.20;99.90;;;;;;5073497;28;20374;-75
2023/12/25 06:36:08;;;;;;;;;;;10.10;99.90;;;;;;5083583;28;20398;-79
2023/12/25 06:38:35;;;;;;;;;;;9.90;99.90;;;;;;5075253;28;19912;-75
2023/12/25 06:41:01;;;;;;;;;;;9.80;99.90;;;;;;5093952;28;19915;-75
2023/12/25 06:43:26;;;;;;;;;;;9.80;99.90;;;;;;5075414;28;19908;-75
2023/12/25 06:45:52;;;;;;;;;;;9.70;99.90;;;;;;5075294;28;19907;-75
2023/12/25 06:48:17;;;;;;;;;;;9.70;99.90;;;;;;5075247;28;20367;-76
2023/12/25 06:50:43;;;;;;;;;;;9.60;99.90;;;;;;5067101;28;19967;-79
2023/12/25 06:53:08;;;;;;;;;;;9.70;99.90;;;;;;5044598;28;19997;-79
2023/12/25 06:55:34;;;;;;;;;;;9.70;99.90;;;;;;5057825;28;19916;-75
2023/12/25 06:57:59;;;;;;;;;;;9.70;99.90;;;;;;5058911;28;20003;-79
2023/12/25 07:00:25;;;;;;;;;;;9.70;99.90;;;;;;5058778;28;19913;-79
2023/12/25 07:02:51;;;;;;;;;;;9.70;99.90;;;;;;5058854;28;20283;-75
2023/12/25 07:05:16;;;;;;;;;;;9.70;99.90;;;;;;5076469;28;19909;-76
2023/12/25 07:07:42;;;;;;;;;;;9.80;99.90;;;;;;5058350;28;19934;-75
2023/12/25 07:10:08;;;;;;;;;;;9.80;99.90;;;;;;5058927;28;19920;-75
2023/12/25 07:12:33;;;;;;;;;;;9.80;99.90;;;;;;5058985;28;20422;-79
2023/12/25 07:14:59;;;;;;;;;;;9.80;99.90;;;;;;5076696;28;19908;-75
2023/12/25 07:17:24;;;;;;;;;;;9.90;99.90;;;;;;5058700;28;20002;-76
2023/12/25 07:19:50;;;;;;;;;;;9.90;99.90;;;;;;5058498;28;19909;-75
2023/12/25 07:22:15;;;;;;;;;;;9.90;99.90;;;;;;5076371;28;19924;-75
2023/12/25 07:24:41;;;;;;;;;;;9.90;99.90;;;;;;5050411;28;19913;-79
2023/12/25 07:27:07;;;;;;;;;;;9.80;99.90;;;;;;5054142;28;19927;-75
2023/12/25 07:29:33;;;;;;;;;;;9.90;99.90;;;;;;5076281;28;20007;-78
2023/12/25 07:31:58;;;;;;;;;;;9.90;99.90;;;;;;5058166;28;20405;-79
2023/12/25 07:34:24;;;;;;;;;;;9.90;99.90;;;;;;5058144;28;20011;-78
2023/12/25 07:36:49;;;;;;;;;;;9.90;99.90;;;;;;5092035;28;19908;-75
2023/12/25 07:39:16;;;;;;;;;;;9.90;99.90;;;;;;5096248;28;19918;-79
2023/12/25 07:41:45;;;;;;;;;;;9.90;99.90;;;;;;5063360;28;19974;-79
2023/12/25 07:44:14;;;;;;;;;;;9.90;99.90;;;;;;5057084;28;20294;-75
2023/12/25 07:46:39;;;;;;;;;;;9.90;99.90;;;;;;5076363;28;19908;-79
2023/12/25 07:49:05;;;;;;;;;;;9.90;99.90;;;;;;5057764;28;20007;-75
2023/12/25 07:51:31;;;;;;;;;;;9.90;99.90;;;;;;5073096;28;19965;-79
2023/12/25 07:53:56;;;;;;;;;;;9.90;99.90;;;;;;5077859;28;19908;-75
2023/12/25 07:56:22;;;;;;;;;;;10.00;99.90;;;;;;5093621;28;20368;-79
2023/12/25 07:58:47;;;;;;;;;;;10.00;99.90;;;;;;5057805;28;19915;-75
2023/12/25 08:01:13;;;;;;;;;;;9.90;99.90;;;;;;5057371;28;19920;-79
2023/12/25 08:03:39;;;;;;;;;;;10.00;99.90;;;;;;5057228;28;19908;-79
2023/12/25 08:06:04;;;;;;;;;;;10.00;99.90;;;;;;5057638;28;19913;-75
2023/12/25 08:08:30;;;;;;;;;;;10.00;99.90;;;;;;5075641;28;19908;-79
2023/12/25 08:10:55;;;;;;;;;;;10.00;99.90;;;;;;5057363;28;19919;-79
2023/12/25 08:13:21;;;;;;;;;;;10.00;99.90;;;;;;5057319;28;19908;-75
2023/12/25 08:15:47;;;;;;;;;;;10.10;99.90;;;;;;5057343;28;19912;-75
2023/12/25 08:18:12;;;;;;;;;;;10.00;99.90;;;;;;5057424;28;20436;-76
2023/12/25 08:20:38;;;;;;;;;;;10.00;99.90;;;;;;5057349;28;19959;-79
2023/12/25 08:23:03;;;;;;;;;;;10.10;99.90;;;;;;5055223;28;19947;-79
2023/12/25 08:25:29;;;;;;;;;;;10.00;99.90;;;;;;5043343;28;20019;-79
2023/12/25 08:27:54;;;;;;;;;;;10.10;99.90;;;;;;5056420;28;19912;-78
2023/12/25 08:30:20;;;;;;;;;;;10.10;99.90;;;;;;5042472;28;19920;-79
2023/12/25 08:32:46;;;;;;;;;;;10.10;99.90;;;;;;5053016;28;19917;-80
2023/12/25 08:35:11;;;;;;;;;;;10.10;99.90;;;;;;5054624;28;20010;-75
2023/12/25 08:37:37;;;;;;;;;;;10.10;99.90;;;;;;5055104;28;20431;-75
2023/12/25 08:40:03;;;;;;;;;;;10.20;99.90;;;;;;5036905;28;20008;-78
2023/12/25 08:42:30;;;;;;;;;;;10.20;99.90;;;;;;5054969;28;19915;-75
2023/12/25 08:44:55;;;;;;;;;;;10.20;99.90;;;;;;5037050;28;19913;-75
2023/12/25 08:47:22;;;;;;;;;;;10.30;99.90;;;;;;5054779;28;20387;-75
2023/12/25 08:49:48;;;;;;;;;;;10.30;99.90;;;;;;5055109;28;20314;-79
2023/12/25 08:52:13;;;;;;;;;;;10.40;99.90;;;;;;5054608;28;19917;-75
2023/12/25 08:54:39;;;;;;;;;;;10.30;99.90;;;;;;5054632;28;19915;-75
2023/12/25 08:57:04;;;;;;;;;;;10.40;99.90;;;;;;5044730;28;19917;-79
2023/12/25 08:59:30;;;;;;;;;;;10.60;99.90;;;;;;5074629;28;19912;-79
2023/12/25 09:01:56;;;;;;;;;;;10.60;99.90;;;;;;5056419;28;19915;-80
2023/12/25 09:04:21;;;;;;;;;;;10.60;99.90;;;;;;5056346;28;19908;-75
2023/12/25 09:06:47;;;;;;;;;;;10.60;99.90;;;;;;5074503;28;19913;-75
2023/12/25 09:09:12;;;;;;;;;;;10.70;99.90;;;;;;5056281;28;19908;-79
2023/12/25 09:11:38;;;;;;;;;;;10.70;99.90;;;;;;5074216;28;19916;-79
2023/12/25 09:14:03;;;;;;;;;;;10.80;99.90;;;;;;5056135;28;19909;-79
2023/12/25 09:16:29;;;;;;;;;;;10.70;99.90;;;;;;5056077;28;19916;-79
2023/12/25 09:18:55;;;;;;;;;;;10.70;99.90;;;;;;5074382;28;19919;-79
2023/12/25 09:21:20;;;;;;;;;;;10.70;99.90;;;;;;5056075;28;19908;-75
2023/12/25 09:23:46;;;;;;;;;;;10.70;99.90;;;;;;5047809;28;20311;-75
2023/12/25 09:26:19;;;;;;;;;;;10.80;99.90;;;;;;5040851;28;19935;-75
2023/12/25 09:28:45;;;;;;;;;;;11.00;99.90;;;;;;5053858;28;19919;-78
2023/12/25 09:31:11;;;;;;;;;;;11.00;99.90;;;;;;5038709;28;19920;-75
2023/12/25 09:33:37;;;;;;;;;;;11.00;99.90;;;;;;5056539;28;20011;-79
2023/12/25 09:36:02;;;;;;;;;;;11.00;99.90;;;;;;5065454;28;19936;-79
2023/12/25 09:38:28;;;;;;;;;;;11.00;99.90;;;;;;5094172;28;19920;-79
2023/12/25 09:40:55;;;;;;;;;;;10.90;99.90;;;;;;5075849;28;19908;-75
2023/12/25 09:43:21;;;;;;;;;;;10.80;99.90;;;;;;5076009;28;19908;-79
2023/12/25 09:45:47;;;;;;;;;;;10.70;99.90;;;;;;5076035;28;20421;-76
2023/12/25 09:48:12;;;;;;;;;;;10.80;99.90;;;;;;5075960;28;19916;-79
2023/12/25 09:50:38;;;;;;;;;;;10.90;99.90;;;;;;5075107;28;19966;-75
2023/12/25 09:53:04;;;;;;;;;;;10.90;99.90;;;;;;5075688;28;20357;-80
2023/12/25 09:55:29;;;;;;;;;;;10.90;99.90;;;;;;5075743;28;19915;-79
2023/12/25 09:57:56;;;;;;;;;;;10.90;99.90;;;;;;5075805;28;20417;-75
2023/12/25 10:00:22;;;;;;;;;;;10.80;99.90;;;;;;5075810;28;20053;-80
2023/12/25 10:02:49;;;;;;;;;;;10.90;99.90;;;;;;5064317;28;19954;-75
2023/12/25 10:05:15;;;;;;;;;;;10.90;99.90;;;;;;5055476;28;20023;-79
2023/12/25 10:07:41;;;;;;;;;;;11.00;99.90;;;;;;5055202;28;19980;-79
2023/12/25 10:10:08;;;;;;;;;;;11.10;99.90;;;;;;5055574;28;19912;-79
2023/12/25 10:12:34;;;;;;;;;;;11.00;99.90;;;;;;5073801;28;19909;-78
2023/12/25 10:14:59;;;;;;;;;;;11.00;99.90;;;;;;5074025;28;19909;-79
2023/12/25 10:17:25;;;;;;;;;;;11.20;99.90;;;;;;5055561;28;20290;-80
2023/12/25 10:19:51;;;;;;;;;;;11.30;99.90;;;;;;5055555;28;19916;-79
2023/12/25 10:22:29;;;;;;;;;;;11.30;99.90;;;;;;5054922;28;20355;-76
2023/12/25 10:24:55;;;;;;;;;;;11.50;99.90;;;;;;5046759;28;19912;-79
2023/12/25 10:27:21;;;;;;;;;;;11.50;99.90;;;;;;5059432;28;20375;-80
2023/12/25 10:29:47;;;;;;;;;;;11.50;99.90;;;;;;5077509;28;20011;-76
2023/12/25 10:32:15;;;;;;;;;;;11.40;99.90;;;;;;5055780;28;20004;-78
2023/12/25 10:34:41;;;;;;;;;;;11.40;99.90;;;;;;5057485;28;20375;-75
2023/12/25 10:37:06;;;;;;;;;;;11.40;99.90;;;;;;5057291;28;19909;-79
2023/12/25 10:39:33;;;;;;;;;;;11.40;99.90;;;;;;5055504;28;19916;-80
2023/12/25 10:41:59;;;;;;;;;;;11.40;99.90;;;;;;5055777;28;20291;-75
2023/12/25 10:44:25;;;;;;;;;;;11.30;99.90;;;;;;5057588;28;19913;-79
2023/12/25 10:46:52;;;;;;;;;;;11.40;99.90;;;;;;5057591;28;19919;-79
2023/12/25 10:49:18;;;;;;;;;;;11.50;99.90;;;;;;5057356;28;19917;-79
2023/12/25 10:51:44;;;;;;;;;;;11.30;99.90;;;;;;5055603;28;19970;-79
2023/12/25 10:54:10;;;;;;;;;;;11.30;99.90;;;;;;5063442;28;19917;-80
2023/12/25 10:56:37;;;;;;;;;;;11.40;99.90;;;;;;5066249;28;19956;-80
2023/12/25 10:59:21;;;;;;;;;;;11.50;99.90;;;;;;5056795;28;20030;-79
2023/12/25 11:01:48;;;;;;;;;;;11.50;99.90;;;;;;5055718;28;20334;-79
2023/12/25 11:04:17;;;;;;;;;;;11.50;99.90;;;;;;5056639;28;19921;-78
2023/12/25 11:06:47;;;;;;;;;;;11.50;99.90;;;;;;5055403;28;19935;-77
2023/12/25 11:09:17;;;;;;;;;;;11.50;99.90;;;;;;5051869;28;19959;-79
2023/12/25 11:11:44;;;;;;;;;;;11.60;99.90;;;;;;5035175;28;19913;-75
2023/12/25 11:14:10;;;;;;;;;;;11.70;99.90;;;;;;5051909;28;19955;-78
2023/12/25 11:16:36;;;;;;;;;;;11.80;99.90;;;;;;5035346;28;19909;-79
2023/12/25 11:19:02;;;;;;;;;;;11.70;99.90;;;;;;5035278;28;19926;-79
2023/12/25 11:21:29;;;;;;;;;;;11.60;99.90;;;;;;5035164;28;20008;-79
2023/12/25 11:23:55;;;;;;;;;;;11.70;99.90;;;;;;5041639;28;20299;-75
2023/12/25 11:26:24;;;;;;;;;;;11.70;99.90;;;;;;5055118;28;19908;-79
2023/12/25 11:29:00;;;;;;;;;;;11.60;99.90;;;;;;5054416;28;19909;-75
2023/12/25 11:31:29;;;;;;;;;;;11.70;99.90;;;;;;5064899;28;19924;-78
2023/12/25 11:34:16;;;;;;;;;;;11.70;99.90;;;;;;5057171;28;19908;-79
2023/12/25 11:36:42;;;;;;;;;;;11.80;99.90;;;;;;5056626;28;19995;-79
2023/12/25 11:39:09;;;;;;;;;;;11.70;99.90;;;;;;5056591;28;19908;-79
2023/12/25 11:41:37;;;;;;;;;;;11.60;99.90;;;;;;5056948;28;19913;-79
2023/12/25 11:44:08;;;;;;;;;;;11.70;99.90;;;;;;5056863;28;20417;-80
2023/12/25 11:46:37;;;;;;;;;;;11.70;99.90;;;;;;5056975;28;19908;-75
2023/12/25 11:49:05;;;;;;;;;;;11.70;99.90;;;;;;5057060;28;19909;-80
2023/12/25 11:51:31;;;;;;;;;;;11.80;99.90;;;;;;5056588;28;20302;-79
2023/12/25 11:53:57;;;;;;;;;;;12.10;99.90;;;;;;5075010;28;19909;-75
2023/12/25 11:56:23;;;;;;;;;;;12.10;99.90;;;;;;5057164;28;20317;-79
2023/12/25 11:58:49;;;;;;;;;;;12.00;99.90;;;;;;5074943;28;19913;-79
2023/12/25 12:01:16;;;;;;;;;;;12.10;99.90;;;;;;5056744;28;19909;-75
2023/12/25 12:03:42;;;;;;;;;;;12.20;99.90;;;;;;5056722;28;19955;-75
2023/12/25 12:06:07;;;;;;;;;;;12.20;99.90;;;;;;5056620;28;19915;-79
2023/12/25 12:08:33;;;;;;;;;;;12.40;99.90;;;;;;5056361;28;19939;-80
2023/12/25 12:10:59;;;;;;;;;;;12.50;99.90;;;;;;5056391;28;20333;-75
2023/12/25 12:13:25;;;;;;;;;;;12.30;99.90;;;;;;5056407;28;19912;-78
2023/12/25 12:15:51;;;;;;;;;;;12.10;99.90;;;;;;5056686;28;19909;-79
2023/12/25 12:18:16;;;;;;;;;;;12.30;99.90;;;;;;5056283;28;19960;-79
2023/12/25 12:20:42;;;;;;;;;;;12.30;99.90;;;;;;5056285;28;19908;-80
2023/12/25 12:23:13;;;;;;;;;;;12.40;99.90;;;;;;5054841;28;19908;-79
2023/12/25 12:25:38;;;;;;;;;;;12.60;99.90;;;;;;5055807;28;20034;-79
2023/12/25 12:28:04;;;;;;;;;;;12.60;99.90;;;;;;5074516;28;19943;-76
2023/12/25 12:30:31;;;;;;;;;;;12.60;99.90;;;;;;4991497;28;1834918;-76
2023/12/25 12:32:57;;;;;;;;;;;12.50;99.90;;;;;;5057149;28;19919;-79
2023/12/25 12:35:22;;;;;;;;;;;12.30;99.90;;;;;;5056952;28;19912;-78
2023/12/25 12:37:48;;;;;;;;;;;12.30;99.90;;;;;;5075097;28;19908;-75
2023/12/25 12:40:14;;;;;;;;;;;12.30;99.90;;;;;;5056679;28;19915;-79
2023/12/25 12:42:40;;;;;;;;;;;12.30;99.90;;;;;;5056879;28;19945;-79
2023/12/25 12:45:06;;;;;;;;;;;12.30;99.90;;;;;;5056919;28;20295;-79
2023/12/25 12:47:32;;;;;;;;;;;12.30;99.90;;;;;;5056449;28;19908;-79
2023/12/25 12:49:58;;;;;;;;;;;12.30;99.90;;;;;;5056925;28;20326;-75
2023/12/25 12:52:24;;;;;;;;;;;12.40;99.90;;;;;;5074591;28;19920;-78
2023/12/25 12:54:50;;;;;;;;;;;12.30;99.90;;;;;;5074510;28;19916;-79
2023/12/25 12:57:16;;;;;;;;;;;12.40;99.90;;;;;;5056656;28;19955;-79
2023/12/25 12:59:42;;;;;;;;;;;12.40;99.90;;;;;;5056414;28;20284;-79
2023/12/25 13:02:07;;;;;;;;;;;12.40;99.90;;;;;;5056596;28;19916;-79
2023/12/25 13:04:33;;;;;;;;;;;12.30;99.90;;;;;;5056563;28;19909;-79
2023/12/25 13:06:58;;;;;;;;;;;12.10;99.90;;;;;;5056081;28;20387;-75
2023/12/25 13:09:25;;;;;;;;;;;12.30;99.90;;;;;;5074945;28;19909;-79
2023/12/25 13:11:50;;;;;;;;;;;12.20;99.90;;;;;;5056282;28;20387;-79
2023/12/25 13:14:16;;;;;;;;;;;12.30;99.90;;;;;;5056262;28;19958;-79
2023/12/25 13:16:44;;;;;;;;;;;12.30;99.90;;;;;;5074421;28;20329;-79
2023/12/25 13:19:10;;;;;;;;;;;12.30;99.90;;;;;;5055781;28;20361;-75
2023/12/25 13:21:35;;;;;;;;;;;12.20;99.90;;;;;;5056147;28;19913;-80
2023/12/25 13:24:01;;;;;;;;;;;12.20;99.90;;;;;;5053503;28;19908;-75
2023/12/25 13:26:29;;;;;;;;;;;12.10;99.90;;;;;;5037904;28;20447;-76
2023/12/25 13:28:54;;;;;;;;;;;12.10;99.90;;;;;;5036051;28;19928;-75
2023/12/25 13:31:20;;;;;;;;;;;12.10;99.90;;;;;;5057977;28;20394;-80
2023/12/25 13:33:45;;;;;;;;;;;12.10;99.90;;;;;;5047479;28;20013;-79
2023/12/25 13:36:15;;;;;;;;;;;12.10;99.90;;;;;;5056324;28;19915;-75
2023/12/25 13:38:41;;;;;;;;;;;12.20;99.90;;;;;;5093903;28;19916;-75
2023/12/25 13:41:07;;;;;;;;;;;12.20;99.90;;;;;;5076016;28;20366;-79
2023/12/25 13:43:32;;;;;;;;;;;12.20;99.90;;;;;;5075921;28;20286;-77
2023/12/25 13:45:58;;;;;;;;;;;12.20;99.90;;;;;;5093751;28;19912;-75
2023/12/25 13:48:25;;;;;;;;;;;12.10;99.90;;;;;;5075309;28;20336;-75
2023/12/25 13:50:50;;;;;;;;;;;12.10;99.90;;;;;;5075887;28;19916;-78
2023/12/25 13:53:16;;;;;;;;;;;12.00;99.90;;;;;;5075884;28;19954;-75
2023/12/25 13:55:42;;;;;;;;;;;12.00;99.90;;;;;;5073957;28;19908;-79
2023/12/25 13:58:08;;;;;;;;;;;12.00;99.90;;;;;;5055914;28;19962;-75
2023/12/25 14:00:33;;;;;;;;;;;12.10;99.90;;;;;;5054693;28;20379;-79
2023/12/25 14:02:59;;;;;;;;;;;12.20;99.90;;;;;;5055723;28;19909;-75
2023/12/25 14:05:24;;;;;;;;;;;12.30;99.90;;;;;;5073603;28;19948;-79
2023/12/25 14:07:50;;;;;;;;;;;12.30;99.90;;;;;;5055571;28;19908;-79
2023/12/25 14:10:15;;;;;;;;;;;12.10;99.90;;;;;;5073475;28;20065;-75